The Weather Page

Only for information, data not for operational purposes.

ELLX Aeronautical Report by METEOLUX

ELLX Current METAR and TAF

ELLX 240620Z 22003KT 9000 FEW032 10/10 Q1019 NOSIG

TAF ELLX 240500Z 2406/2512 25005KT 9999 BKN035 TEMPO 2406/2410 3000 BR BKN005 BECMG 2503/2505 0300 FG VV001 BECMG 2508/2510 CAVOK

METAR’s and TAF’s

METAR/TAF from US-NOAA-ADDS. Enter one or more ICAO codes separated by spaces:

METAR TAF 

A list of weather stations and their ICAO and IATA codes is found on this page.

Flight Preparation

EUMETSAT Infrared

Eumetsat Infrared

METEOX Radar

METEOX Radar Image


Share this

Comments are closed.